Time;durP1;ratioP1;P1;durP2;ratioP2;P2;SDS_P1;SDS_P2;PMS_P1;PMS_P2;Temp;Humidity;BMP_temperature;BMP_pressure;BME280_temperature;BME280_humidity;BME280_pressure;Samples;Min_cycle;Max_cycle;Signal;HPM_P1;HPM_P2
2021/06/18 00:01:36;;;;;;;;;;;13.90;99.90;;;;;;5076205;28;19925;-83
2021/06/18 00:04:03;;;;;;;;;;;13.90;99.90;;;;;;5076200;28;19934;-83
2021/06/18 00:06:30;;;;;;;;;;;13.90;99.90;;;;;;5075919;28;19939;-83
2021/06/18 00:08:57;;;;;;;;;;;13.90;99.90;;;;;;5076109;28;20723;-84
2021/06/18 00:11:24;;;;;;;;;;;14.00;99.90;;;;;;5075971;28;19924;-84
2021/06/18 00:13:51;;;;;;;;;;;14.00;99.90;;;;;;5076120;28;19929;-83
2021/06/18 00:16:17;;;;;;;;;;;14.00;99.90;;;;;;5075948;28;19932;-83
2021/06/18 00:18:46;;;;;;;;;;;14.10;99.90;;;;;;5075811;28;20307;-83
2021/06/18 00:21:12;;;;;;;;;;;14.10;99.90;;;;;;5075724;28;19935;-83
2021/06/18 00:23:39;;;;;;;;;;;14.00;99.90;;;;;;5075751;28;20368;-83
2021/06/18 00:26:06;;;;;;;;;;;14.00;99.90;;;;;;5075686;28;19924;-84
2021/06/18 00:28:35;;;;;;;;;;;14.00;99.90;;;;;;5075830;28;19924;-83
2021/06/18 00:31:02;;;;;;;;;;;13.90;99.90;;;;;;5075657;28;19929;-83
2021/06/18 00:33:30;;;;;;;;;;;13.90;99.90;;;;;;5075550;28;19951;-83
2021/06/18 00:35:58;;;;;;;;;;;13.90;99.90;;;;;;5075654;28;19924;-83
2021/06/18 00:38:25;;;;;;;;;;;13.80;99.90;;;;;;5075690;28;19924;-83
2021/06/18 00:40:52;;;;;;;;;;;13.80;99.90;;;;;;5075734;28;19934;-82
2021/06/18 00:43:18;;;;;;;;;;;13.80;99.90;;;;;;5075445;28;20352;-82
2021/06/18 00:45:45;;;;;;;;;;;13.70;99.90;;;;;;5075461;28;19932;-83
2021/06/18 00:48:12;;;;;;;;;;;13.70;99.90;;;;;;5075439;28;19931;-83
2021/06/18 00:50:39;;;;;;;;;;;13.60;99.90;;;;;;5075267;28;20264;-83
2021/06/18 00:53:07;;;;;;;;;;;13.60;99.90;;;;;;5075009;28;19935;-83
2021/06/18 00:55:34;;;;;;;;;;;13.50;99.90;;;;;;5075507;28;19960;-83
2021/06/18 00:58:01;;;;;;;;;;;13.50;99.90;;;;;;5075281;28;20015;-83
2021/06/18 01:00:28;;;;;;;;;;;13.40;99.90;;;;;;5075262;28;20288;-84
2021/06/18 01:02:55;;;;;;;;;;;13.40;99.90;;;;;;5075132;28;19935;-84
2021/06/18 01:05:22;;;;;;;;;;;13.40;99.90;;;;;;5074963;28;19925;-83
2021/06/18 01:07:51;;;;;;;;;;;13.40;99.90;;;;;;5075377;28;19924;-84
2021/06/18 01:10:21;;;;;;;;;;;13.40;99.90;;;;;;5075135;28;19925;-83
2021/06/18 01:12:49;;;;;;;;;;;13.30;99.90;;;;;;5075401;28;19924;-83
2021/06/18 01:15:17;;;;;;;;;;;13.20;99.90;;;;;;5075193;28;20296;-83
2021/06/18 01:17:46;;;;;;;;;;;13.10;99.90;;;;;;5075024;28;19942;-83
2021/06/18 01:20:17;;;;;;;;;;;13.10;99.90;;;;;;5075147;28;19925;-83
2021/06/18 01:22:45;;;;;;;;;;;13.00;99.90;;;;;;5075280;28;19924;-83
2021/06/18 01:25:13;;;;;;;;;;;13.00;99.90;;;;;;5075113;28;19928;-83
2021/06/18 01:27:43;;;;;;;;;;;12.90;99.90;;;;;;5074939;28;19924;-83
2021/06/18 01:30:12;;;;;;;;;;;12.90;99.90;;;;;;5074908;28;19935;-83
2021/06/18 01:32:41;;;;;;;;;;;12.90;99.90;;;;;;5075038;28;19935;-83
2021/06/18 01:35:09;;;;;;;;;;;12.90;99.90;;;;;;5075066;28;20268;-83
2021/06/18 01:37:35;;;;;;;;;;;12.90;99.90;;;;;;5074953;28;19934;-83
2021/06/18 01:40:04;;;;;;;;;;;12.90;99.90;;;;;;5074747;28;20390;-83
2021/06/18 01:42:31;;;;;;;;;;;12.90;99.90;;;;;;5075108;28;19939;-83
2021/06/18 01:44:58;;;;;;;;;;;12.90;99.90;;;;;;5074721;28;19951;-83
2021/06/18 01:47:27;;;;;;;;;;;12.90;99.90;;;;;;5074732;28;20333;-83
2021/06/18 01:49:53;;;;;;;;;;;12.90;99.90;;;;;;5074890;28;19924;-83
2021/06/18 01:52:20;;;;;;;;;;;12.90;99.90;;;;;;5074856;28;19925;-84
2021/06/18 01:54:47;;;;;;;;;;;12.80;99.90;;;;;;5074764;28;19932;-84
2021/06/18 01:57:14;;;;;;;;;;;12.80;99.90;;;;;;5074736;28;19935;-83
2021/06/18 01:59:41;;;;;;;;;;;12.80;99.90;;;;;;5074584;28;20244;-83
2021/06/18 02:02:08;;;;;;;;;;;12.80;99.90;;;;;;5074559;28;19934;-83
2021/06/18 02:04:37;;;;;;;;;;;12.70;99.90;;;;;;5074699;28;19934;-83
2021/06/18 02:07:04;;;;;;;;;;;12.70;99.90;;;;;;5077923;28;20272;-83
2021/06/18 02:09:32;;;;;;;;;;;12.60;99.90;;;;;;5078355;28;19928;-84
2021/06/18 02:11:58;;;;;;;;;;;12.60;99.90;;;;;;5078231;28;19951;-83
2021/06/18 02:14:26;;;;;;;;;;;12.60;99.90;;;;;;5078253;28;20363;-83
2021/06/18 02:16:53;;;;;;;;;;;12.60;99.90;;;;;;5078137;28;20332;-83
2021/06/18 02:19:20;;;;;;;;;;;12.60;99.90;;;;;;5078335;28;19924;-82
2021/06/18 02:21:49;;;;;;;;;;;12.50;99.90;;;;;;5078145;28;20360;-84
2021/06/18 02:24:16;;;;;;;;;;;12.50;99.90;;;;;;5078191;28;19935;-83
2021/06/18 02:26:42;;;;;;;;;;;12.50;99.90;;;;;;5077961;28;19924;-83
2021/06/18 02:29:09;;;;;;;;;;;12.50;99.90;;;;;;5077912;28;19936;-83
2021/06/18 02:31:37;;;;;;;;;;;12.50;99.90;;;;;;5078076;28;19924;-84
2021/06/18 02:34:04;;;;;;;;;;;12.40;99.90;;;;;;5077900;28;20381;-83
2021/06/18 02:36:31;;;;;;;;;;;12.40;99.90;;;;;;5077778;28;20260;-83
2021/06/18 02:38:59;;;;;;;;;;;12.30;99.90;;;;;;5077691;28;19935;-84
2021/06/18 02:41:26;;;;;;;;;;;12.30;99.90;;;;;;5077729;28;19924;-82
2021/06/18 02:43:53;;;;;;;;;;;12.30;99.90;;;;;;5077720;28;19925;-82
2021/06/18 02:46:21;;;;;;;;;;;12.30;99.90;;;;;;5077664;28;19935;-84
2021/06/18 02:48:47;;;;;;;;;;;12.20;99.90;;;;;;5077851;28;19925;-83
2021/06/18 02:51:17;;;;;;;;;;;12.20;99.90;;;;;;5077575;28;20269;-84
2021/06/18 02:53:45;;;;;;;;;;;12.20;99.90;;;;;;5077556;28;19925;-83
2021/06/18 02:56:15;;;;;;;;;;;12.10;99.90;;;;;;5077570;28;19947;-83
2021/06/18 02:58:42;;;;;;;;;;;12.20;99.90;;;;;;5077566;28;19928;-83
2021/06/18 03:01:09;;;;;;;;;;;12.20;99.90;;;;;;5077303;28;19939;-83
2021/06/18 03:03:39;;;;;;;;;;;12.20;99.90;;;;;;5077472;28;19924;-83
2021/06/18 03:06:06;;;;;;;;;;;12.20;99.90;;;;;;5077352;28;19997;-83
2021/06/18 03:08:34;;;;;;;;;;;12.20;99.90;;;;;;5077271;28;20348;-84
2021/06/18 03:11:01;;;;;;;;;;;12.20;99.90;;;;;;5077420;28;19935;-82
2021/06/18 03:13:41;;;;;;;;;;;12.20;99.90;;;;;;5077188;28;20352;-83
2021/06/18 03:16:08;;;;;;;;;;;12.20;99.90;;;;;;5076767;28;20011;-83
2021/06/18 03:18:35;;;;;;;;;;;12.20;99.90;;;;;;5077202;28;19924;-84
2021/06/18 03:21:01;;;;;;;;;;;12.10;99.90;;;;;;5077064;28;20272;-83
2021/06/18 03:23:28;;;;;;;;;;;12.20;99.90;;;;;;5076941;28;20474;-84
2021/06/18 03:25:55;;;;;;;;;;;12.10;99.90;;;;;;5076911;28;19924;-83
2021/06/18 03:28:23;;;;;;;;;;;12.10;99.90;;;;;;5076855;28;19928;-84
2021/06/18 03:30:51;;;;;;;;;;;12.10;99.90;;;;;;5076850;28;20428;-83
2021/06/18 03:33:18;;;;;;;;;;;12.10;99.90;;;;;;5076755;28;19935;-84
2021/06/18 03:35:46;;;;;;;;;;;12.00;99.90;;;;;;5076762;28;20356;-83
2021/06/18 03:38:13;;;;;;;;;;;11.90;99.90;;;;;;5076545;28;19931;-83
2021/06/18 03:40:41;;;;;;;;;;;11.80;99.90;;;;;;5076736;28;19924;-84
2021/06/18 03:43:08;;;;;;;;;;;11.70;99.90;;;;;;5076790;28;20325;-84
2021/06/18 03:45:35;;;;;;;;;;;11.60;99.90;;;;;;5076628;28;19925;-84
2021/06/18 03:48:04;;;;;;;;;;;11.50;99.90;;;;;;5076523;28;19928;-83
2021/06/18 03:50:31;;;;;;;;;;;11.50;99.90;;;;;;5076462;28;20413;-83
2021/06/18 03:52:57;;;;;;;;;;;11.50;99.90;;;;;;5076335;28;19925;-83
2021/06/18 03:55:24;;;;;;;;;;;11.60;99.90;;;;;;5076349;28;19924;-84
2021/06/18 03:57:51;;;;;;;;;;;11.60;99.90;;;;;;5076365;28;19931;-83
2021/06/18 04:00:18;;;;;;;;;;;11.70;99.90;;;;;;5076262;28;19924;-82
2021/06/18 04:02:45;;;;;;;;;;;11.70;99.90;;;;;;5076160;28;20356;-82
2021/06/18 04:05:14;;;;;;;;;;;11.80;99.90;;;;;;5075837;28;19928;-83
2021/06/18 04:07:43;;;;;;;;;;;11.80;99.90;;;;;;5076393;28;19924;-84
2021/06/18 04:10:10;;;;;;;;;;;11.90;99.90;;;;;;5076114;28;20272;-81
2021/06/18 04:12:37;;;;;;;;;;;11.90;99.90;;;;;;5076120;28;19935;-83
2021/06/18 04:15:04;;;;;;;;;;;11.90;99.90;;;;;;5076021;28;19924;-83
2021/06/18 04:17:31;;;;;;;;;;;11.90;99.90;;;;;;5075800;28;19924;-83
2021/06/18 04:19:58;;;;;;;;;;;11.80;99.90;;;;;;5076070;28;19925;-84
2021/06/18 04:22:28;;;;;;;;;;;11.80;99.90;;;;;;5075724;28;19924;-81
2021/06/18 04:24:55;;;;;;;;;;;11.90;99.90;;;;;;5075866;28;20353;-83
2021/06/18 04:27:22;;;;;;;;;;;11.90;99.90;;;;;;5075362;28;20002;-84
2021/06/18 04:29:49;;;;;;;;;;;11.90;99.90;;;;;;5075376;28;19931;-84
2021/06/18 04:32:16;;;;;;;;;;;12.00;99.90;;;;;;5075757;28;19924;-84
2021/06/18 04:34:43;;;;;;;;;;;12.00;99.90;;;;;;5075689;28;19928;-83
2021/06/18 04:37:10;;;;;;;;;;;12.10;99.90;;;;;;5075716;28;19935;-84
2021/06/18 04:39:38;;;;;;;;;;;12.20;99.90;;;;;;5075509;28;19924;-84
2021/06/18 04:42:05;;;;;;;;;;;12.20;99.90;;;;;;5075492;28;19924;-84
2021/06/18 04:44:32;;;;;;;;;;;12.30;99.90;;;;;;5075419;28;19925;-84
2021/06/18 04:46:58;;;;;;;;;;;12.40;99.90;;;;;;5075441;28;19924;-83
2021/06/18 04:49:25;;;;;;;;;;;12.50;99.90;;;;;;5075401;28;20257;-84
2021/06/18 04:51:52;;;;;;;;;;;12.60;99.90;;;;;;5075329;28;19924;-83
2021/06/18 04:54:21;;;;;;;;;;;12.70;99.90;;;;;;5075251;28;19924;-83
2021/06/18 04:56:50;;;;;;;;;;;12.90;99.90;;;;;;5075325;28;20268;-83
2021/06/18 04:59:19;;;;;;;;;;;13.00;99.90;;;;;;5075261;28;19936;-83
2021/06/18 05:01:46;;;;;;;;;;;13.10;99.90;;;;;;5075244;28;19925;-83
2021/06/18 05:04:13;;;;;;;;;;;13.10;99.90;;;;;;5075220;28;19928;-84
2021/06/18 05:06:40;;;;;;;;;;;13.20;99.90;;;;;;5075043;28;19931;-84
2021/06/18 05:09:07;;;;;;;;;;;13.20;99.90;;;;;;5075258;28;19935;-83
2021/06/18 05:11:33;;;;;;;;;;;13.20;99.90;;;;;;5075042;28;20360;-84
2021/06/18 05:14:02;;;;;;;;;;;13.30;99.90;;;;;;5075086;28;19924;-84
2021/06/18 05:16:28;;;;;;;;;;;13.30;99.90;;;;;;5075265;28;20248;-83
2021/06/18 05:18:55;;;;;;;;;;;13.30;99.90;;;;;;5074970;28;19943;-83
2021/06/18 05:21:22;;;;;;;;;;;13.40;99.90;;;;;;5075154;28;19924;-84
2021/06/18 05:23:49;;;;;;;;;;;13.40;99.90;;;;;;5075076;28;19925;-84
2021/06/18 05:26:16;;;;;;;;;;;13.50;99.90;;;;;;5075119;28;19924;-84
2021/06/18 05:28:43;;;;;;;;;;;13.60;99.90;;;;;;5074910;28;19924;-84
2021/06/18 05:31:11;;;;;;;;;;;13.70;99.90;;;;;;5075156;28;19936;-83
2021/06/18 05:33:38;;;;;;;;;;;13.70;99.90;;;;;;5074904;28;20341;-84
2021/06/18 05:36:05;;;;;;;;;;;13.90;99.90;;;;;;5074741;28;19940;-83
2021/06/18 05:38:32;;;;;;;;;;;13.90;99.90;;;;;;5074768;28;19924;-83
2021/06/18 05:40:58;;;;;;;;;;;14.00;99.90;;;;;;5078567;28;19936;-83
2021/06/18 05:43:25;;;;;;;;;;;14.10;99.90;;;;;;5078841;28;20356;-83
2021/06/18 05:45:52;;;;;;;;;;;14.10;99.90;;;;;;5078776;28;19924;-83
2021/06/18 05:48:20;;;;;;;;;;;14.20;99.90;;;;;;5078714;28;19938;-83
2021/06/18 05:50:47;;;;;;;;;;;14.20;99.90;;;;;;5078876;28;19925;-83
2021/06/18 05:53:14;;;;;;;;;;;14.30;99.90;;;;;;5078844;28;19940;-83
2021/06/18 05:55:41;;;;;;;;;;;14.40;99.90;;;;;;5078638;28;19931;-83
2021/06/18 05:58:08;;;;;;;;;;;14.50;99.90;;;;;;5078405;28;20277;-84
2021/06/18 06:00:35;;;;;;;;;;;14.50;99.90;;;;;;5078547;28;19929;-83
2021/06/18 06:03:02;;;;;;;;;;;14.50;99.90;;;;;;5078619;28;19924;-83
2021/06/18 06:05:30;;;;;;;;;;;14.50;99.90;;;;;;5078143;28;20357;-83
2021/06/18 06:07:57;;;;;;;;;;;14.60;99.90;;;;;;5078430;28;19925;-83
2021/06/18 06:10:23;;;;;;;;;;;14.60;99.90;;;;;;5078275;28;19925;-83
2021/06/18 06:12:50;;;;;;;;;;;14.60;99.90;;;;;;5078593;28;19924;-83
2021/06/18 06:15:17;;;;;;;;;;;14.60;99.90;;;;;;5078429;28;19924;-83
2021/06/18 06:17:44;;;;;;;;;;;14.70;99.90;;;;;;5078166;28;20404;-83
2021/06/18 06:20:12;;;;;;;;;;;14.80;99.90;;;;;;5078088;28;19924;-83
2021/06/18 06:22:40;;;;;;;;;;;14.80;99.90;;;;;;5078062;28;19934;-83
2021/06/18 06:25:07;;;;;;;;;;;14.80;99.90;;;;;;5078191;28;19935;-83
2021/06/18 06:27:34;;;;;;;;;;;14.80;99.90;;;;;;5078248;28;19924;-83
2021/06/18 06:30:01;;;;;;;;;;;14.80;99.90;;;;;;5077926;28;20352;-83
2021/06/18 06:32:28;;;;;;;;;;;14.80;99.90;;;;;;5077878;28;19924;-83
2021/06/18 06:34:55;;;;;;;;;;;15.00;99.90;;;;;;5077909;28;19939;-82
2021/06/18 06:37:22;;;;;;;4.00;1.20;;;15.50;99.90;;;;;;5076946;28;20402;-82
2021/06/18 06:39:50;;;;;;;6.00;1.15;;;16.00;99.90;;;;;;5077231;28;20068;-82
2021/06/18 06:42:17;;;;;;;3.13;1.05;;;16.50;99.90;;;;;;5077314;28;20400;-82
2021/06/18 06:44:44;;;;;;;4.25;1.27;;;17.20;99.90;;;;;;5077638;28;20074;-82
2021/06/18 06:47:11;;;;;;;2.30;1.00;;;17.70;99.90;;;;;;5077433;28;20048;-82
2021/06/18 06:49:38;;;;;;;5.95;0.63;;;18.00;99.90;;;;;;5077287;28;20048;-82
2021/06/18 06:52:06;;;;;;;4.75;0.82;;;18.40;99.90;;;;;;5076353;28;20131;-82
2021/06/18 06:54:33;;;;;;;6.57;0.75;;;19.10;99.90;;;;;;5077189;28;20476;-83
2021/06/18 06:57:01;;;;;;;1.98;0.70;;;19.60;99.90;;;;;;5077120;28;20048;-82
2021/06/18 06:59:28;;;;;;;2.13;0.70;;;19.80;99.90;;;;;;5077039;28;20054;-82
2021/06/18 07:01:56;;;;;;;3.17;0.80;;;20.00;98.30;;;;;;5077041;28;20059;-82
2021/06/18 07:04:23;;;;;;;5.10;0.65;;;19.50;98.40;;;;;;5076948;28;20048;-82
2021/06/18 07:06:50;;;;;;;5.05;1.45;;;19.20;99.90;;;;;;5076697;28;20095;-83
2021/06/18 07:09:17;;;;;;;3.78;0.40;;;18.80;99.90;;;;;;5076900;28;20089;-83
2021/06/18 07:11:44;;;;;;;2.83;0.50;;;18.70;99.90;;;;;;5076850;28;20380;-82
2021/06/18 07:14:12;;;;;;;1.70;0.70;;;18.50;99.90;;;;;;5076886;28;20082;-82
2021/06/18 07:16:39;;;;;;;1.95;0.50;;;18.50;99.20;;;;;;5076822;28;20052;-82
2021/06/18 07:19:07;;;;;;;1.27;0.47;;;18.30;99.60;;;;;;5076648;28;20048;-82
2021/06/18 07:21:34;;;;;;;3.60;0.40;;;18.20;99.80;;;;;;5076548;28;20045;-82
2021/06/18 07:24:01;;;;;;;2.42;0.55;;;18.00;99.90;;;;;;5076595;28;20044;-82
2021/06/18 07:26:28;;;;;;;1.50;0.52;;;17.70;99.90;;;;;;5076454;28;20049;-82
2021/06/18 07:28:55;;;;;;;1.15;0.60;;;17.40;99.90;;;;;;5076522;28;20480;-82
2021/06/18 07:31:23;;;;;;;0.90;0.50;;;17.30;99.90;;;;;;5076504;28;20048;-82
2021/06/18 07:33:50;;;;;;;2.47;0.57;;;17.20;99.90;;;;;;5076469;28;20358;-82
2021/06/18 07:36:17;;;;;;;2.15;0.60;;;17.30;99.90;;;;;;5076479;28;20166;-82
2021/06/18 07:38:44;;;;;;;2.45;0.50;;;17.20;99.90;;;;;;5076486;28;20053;-82
2021/06/18 07:41:12;;;;;;;3.13;0.90;;;17.20;99.90;;;;;;5076066;28;20055;-82
2021/06/18 07:43:39;;;;;;;2.45;0.75;;;17.10;99.90;;;;;;5076435;28;20156;-82
2021/06/18 07:46:06;;;;;;;1.80;0.50;;;17.20;99.90;;;;;;5076161;28;20052;-84
2021/06/18 07:48:35;;;;;;;2.25;0.40;;;17.30;99.90;;;;;;5076098;28;20059;-82
2021/06/18 07:51:02;;;;;;;1.35;0.50;;;17.60;99.90;;;;;;5076049;28;20056;-83
2021/06/18 07:53:29;;;;;;;;;;;19.60;99.90;;;;;;5076387;28;20044;-82
2021/06/18 07:55:56;;;;;;;2.00;0.63;;;21.30;92.00;;;;;;5075930;28;20434;-82
2021/06/18 07:58:23;;;;;;;2.05;0.40;;;22.30;82.50;;;;;;5075741;28;20056;-83
2021/06/18 08:00:50;;;;;;;1.30;0.55;;;22.10;78.30;;;;;;5075796;28;20070;-82
2021/06/18 08:03:18;;;;;;;2.72;0.30;;;21.70;77.10;;;;;;5075709;28;20454;-82
2021/06/18 08:05:46;;;;;;;7.13;0.60;;;21.40;83.50;;;;;;5075745;28;20048;-82
2021/06/18 08:08:13;;;;;;;3.72;0.75;;;21.10;84.20;;;;;;5075873;28;20415;-83
2021/06/18 08:10:40;;;;;;;0.85;0.70;;;20.80;81.10;;;;;;5075897;28;20133;-82
2021/06/18 08:13:07;;;;;;;0.63;0.38;;;20.20;85.00;;;;;;5075623;28;20114;-82
2021/06/18 08:15:34;;;;;;;0.88;0.60;;;19.60;92.90;;;;;;5075463;28;20488;-82
2021/06/18 08:18:02;;;;;;;2.45;0.88;;;19.10;95.60;;;;;;5075668;28;20052;-82
2021/06/18 08:20:29;;;;;;;4.38;0.55;;;18.70;96.10;;;;;;5075392;28;20131;-82
2021/06/18 08:22:58;;;;;;;3.90;0.93;;;18.50;98.80;;;;;;5075328;28;20533;-81
2021/06/18 08:25:25;;;;;;;4.68;0.60;;;18.40;99.90;;;;;;5075564;28;20048;-82
2021/06/18 08:27:52;;;;;;;3.08;0.68;;;18.20;99.90;;;;;;5075249;28;20058;-82
2021/06/18 08:30:20;;;;;;;0.80;0.40;;;18.10;99.90;;;;;;5075238;28;20516;-81
2021/06/18 08:32:47;;;;;;;1.60;0.63;;;18.30;99.90;;;;;;5075108;28;20049;-82
2021/06/18 08:35:14;;;;;;;3.83;0.70;;;18.70;99.40;;;;;;5074985;28;20044;-82
2021/06/18 08:37:41;;;;;;;1.40;0.50;;;19.30;97.50;;;;;;5075077;28;20049;-82
2021/06/18 08:40:11;;;;;;;1.10;0.40;;;19.80;95.90;;;;;;5074999;28;20060;-82
2021/06/18 08:42:39;;;;;;;6.85;0.98;;;20.80;92.10;;;;;;5074988;28;20060;-83
2021/06/18 08:45:07;;;;;;;1.92;0.60;;;21.30;87.70;;;;;;5074982;28;20055;-83
2021/06/18 08:47:34;;;;;;;2.28;0.77;;;21.60;83.30;;;;;;5075177;28;20058;-83
2021/06/18 08:50:01;;;;;;;1.70;0.50;;;21.70;76.90;;;;;;5075299;28;20040;-83
2021/06/18 08:52:28;;;;;;;1.70;0.50;;;21.30;80.70;;;;;;5075178;28;20055;-83
2021/06/18 08:54:55;;;;;;;3.58;1.35;;;20.90;83.80;;;;;;5074958;28;20048;-83
2021/06/18 08:57:24;;;;;;;3.53;0.93;;;20.60;90.10;;;;;;5074533;28;20048;-83
2021/06/18 08:59:51;;;;;;;3.80;1.35;;;20.30;89.50;;;;;;5074762;28;20050;-83
2021/06/18 09:02:19;;;;;;;4.63;1.15;;;20.00;91.50;;;;;;5074834;28;20051;-83
2021/06/18 09:05:06;;;;;;;1.13;0.60;;;19.70;93.20;;;;;;5074994;28;20052;-83
2021/06/18 09:07:50;;;;;;;1.92;0.60;;;19.40;95.90;;;;;;5074449;28;20488;-83
2021/06/18 09:10:40;;;;;;;2.88;0.85;;;19.30;96.20;;;;;;5074520;28;20044;-82
2021/06/18 09:13:09;;;;;;;1.52;0.60;;;18.90;98.40;;;;;;5070564;28;20083;-82
2021/06/18 09:15:37;;;;;;;1.75;0.50;;;18.80;98.40;;;;;;5074515;28;20067;-82
2021/06/18 09:18:30;;;;;;;4.10;1.17;;;18.70;99.90;;;;;;5074772;28;20053;-83
2021/06/18 09:21:27;;;;;;;4.47;1.00;;;18.60;99.70;;;;;;5074719;28;20092;-83
2021/06/18 09:23:55;;;;;;;3.67;0.95;;;18.50;99.90;;;;;;5013223;28;20463;-82
2021/06/18 09:26:28;;;;;;;1.27;1.00;;;18.50;99.70;;;;;;5013294;28;20085;-82
2021/06/18 09:29:07;;;;;;;3.92;1.00;;;18.40;99.90;;;;;;5013426;28;20053;-83
2021/06/18 09:31:35;;;;;;;2.58;1.02;;;18.30;99.90;;;;;;5013191;28;20081;-82
2021/06/18 09:34:03;;;;;;;3.38;0.77;;;18.20;99.90;;;;;;5013209;28;20081;-83
2021/06/18 09:36:31;;;;;;;2.20;0.73;;;18.10;99.90;;;;;;5012987;28;20409;-83
2021/06/18 09:38:59;;;;;;;0.90;0.55;;;18.10;99.90;;;;;;5013068;28;20057;-82
2021/06/18 09:41:31;;;;;;;3.17;0.88;;;18.10;99.90;;;;;;5013189;28;20515;-82
2021/06/18 09:44:00;;;;;;;3.05;0.50;;;18.00;99.90;;;;;;5013175;28;20375;-82
2021/06/18 09:46:47;;;;;;;2.60;0.73;;;18.00;99.90;;;;;;5013069;28;20386;-82
2021/06/18 09:49:15;;;;;;;2.08;0.77;;;18.00;99.90;;;;;;5013071;28;20054;-83
2021/06/18 09:51:56;;;;;;;2.08;0.60;;;18.00;99.90;;;;;;5013148;28;20065;-82
2021/06/18 09:54:23;;;;;;;4.10;1.73;;;18.00;99.90;;;;;;5013110;28;20065;-82
2021/06/18 09:56:50;;;;;;;3.30;0.73;;;18.10;99.90;;;;;;5012970;28;20140;-82
2021/06/18 09:59:24;;;;;;;2.92;1.15;;;18.20;99.90;;;;;;5033410;28;20056;-83
2021/06/18 10:01:54;;;;;;;2.85;0.98;;;18.30;99.90;;;;;;5074157;28;20479;-83
2021/06/18 10:04:24;;;;;;;4.75;1.00;;;18.30;99.90;;;;;;5074288;28;20059;-82
2021/06/18 10:06:51;;;;;;;1.25;0.70;;;18.40;99.90;;;;;;5073952;28;20553;-83
2021/06/18 10:09:19;;;;;;;2.42;0.85;;;18.30;99.90;;;;;;5074324;28;20137;-83
2021/06/18 10:11:46;;;;;;;2.63;0.73;;;18.30;99.90;;;;;;5074292;28;20048;-82
2021/06/18 10:14:13;;;;;;;4.63;0.80;;;18.40;99.90;;;;;;5074238;28;20075;-83
2021/06/18 10:16:42;;;;;;;2.88;1.10;;;18.50;99.90;;;;;;5074046;28;20051;-83
2021/06/18 10:19:09;;;;;;;1.52;0.68;;;18.50;99.90;;;;;;5073935;28;20063;-83
2021/06/18 10:21:44;;;;;;;3.15;1.08;;;18.60;99.90;;;;;;5074095;28;20052;-83
2021/06/18 10:24:11;;;;;;;10.00;0.80;;;18.70;99.90;;;;;;5074320;28;20052;-83
2021/06/18 10:26:38;;;;;;;2.45;0.85;;;18.70;99.90;;;;;;5075228;28;20052;-82
2021/06/18 10:29:05;;;;;;;5.13;0.82;;;18.80;99.90;;;;;;5077662;28;20052;-82
2021/06/18 10:31:35;;;;;;;1.85;0.82;;;18.80;99.90;;;;;;5077713;28;20049;-82
2021/06/18 10:34:07;;;;;;;2.85;0.88;;;18.80;99.90;;;;;;5077564;28;20048;-81
2021/06/18 10:36:34;;;;;;;3.95;1.20;;;18.90;99.90;;;;;;5077742;28;20045;-83
2021/06/18 10:39:07;;;;;;;1.67;0.88;;;18.90;99.90;;;;;;5077460;28;20052;-83
2021/06/18 10:41:34;;;;;;;2.97;0.98;;;19.00;99.90;;;;;;5077491;28;20087;-83
2021/06/18 10:44:01;;;;;;;5.70;1.38;;;19.10;99.90;;;;;;5077398;28;20059;-82
2021/06/18 10:46:29;;;;;;;1.65;0.98;;;19.20;99.90;;;;;;5077346;28;20051;-81
2021/06/18 10:49:15;;;;;;;3.08;0.93;;;19.20;99.90;;;;;;5077142;28;20245;-84
2021/06/18 10:51:52;;;;;;;4.15;0.98;;;19.20;99.90;;;;;;5077317;28;20048;-83
2021/06/18 10:54:29;;;;;;;;;;;19.30;99.90;;;;;;5077234;28;20066;-82
2021/06/18 10:57:06;;;;;;;;;;;19.40;99.90;;;;;;5077567;28;20032;-83
2021/06/18 10:59:34;;;;;;;;;;;19.40;99.90;;;;;;5077637;28;20314;-90
2021/06/18 11:02:01;;;;;;;;;;;19.60;99.90;;;;;;5077355;28;20246;-82
2021/06/18 11:04:43;;;;;;;;;;;19.60;99.90;;;;;;5077434;28;20255;-82
2021/06/18 11:07:20;;;;;;;;;;;19.60;99.90;;;;;;5077146;28;19924;-82
2021/06/18 11:09:47;;;;;;;;;;;19.60;99.90;;;;;;5077343;28;20226;-82
2021/06/18 11:12:39;;;;;;;2.38;1.23;;;19.80;99.90;;;;;;5077168;28;19970;-82
2021/06/18 11:15:06;;;;;;;;;;;19.80;99.90;;;;;;5077174;28;20059;-82
2021/06/18 11:17:43;;;;;;;;;;;19.90;99.90;;;;;;5076943;28;19931;-82
2021/06/18 11:20:12;;;;;;;;;;;19.90;99.90;;;;;;5076938;28;19921;-82
2021/06/18 11:22:40;;;;;;;;;;;19.90;99.90;;;;;;5077261;28;19935;-82
2021/06/18 11:25:31;;;;;;;7.72;1.80;;;20.00;99.90;;;;;;5075921;28;20408;-82
2021/06/18 11:28:23;;;;;;;1.55;0.60;;;19.90;99.90;;;;;;5076200;28;20471;-83
2021/06/18 11:30:51;;;;;;;4.32;1.08;;;19.80;99.90;;;;;;5075022;28;20060;-82
2021/06/18 11:33:52;;;;;;;3.85;0.88;;;19.90;99.90;;;;;;5076520;28;20052;-82
2021/06/18 11:36:51;;;;;;;1.88;1.10;;;20.00;98.90;;;;;;5076671;28;20049;-82
2021/06/18 11:39:25;;;;;;;1.13;0.70;;;20.00;99.60;;;;;;5076596;28;20056;-82
2021/06/18 11:42:19;;;;;;;7.75;1.40;;;20.10;99.40;;;;;;5076424;28;20045;-82
2021/06/18 11:44:46;;;;;;;3.13;1.20;;;20.10;99.00;;;;;;5072050;28;20476;-82
2021/06/18 11:47:13;;;;;;;2.33;0.88;;;20.20;99.40;;;;;;5076191;28;20127;-82
2021/06/18 11:49:44;;;;;;;3.67;1.15;;;20.30;99.40;;;;;;5076372;28;20053;-82
2021/06/18 11:52:12;;;;;;;3.35;1.10;;;20.40;98.90;;;;;;5076084;28;20048;-82
2021/06/18 11:54:41;;;;;;;1.48;0.90;;;20.40;99.30;;;;;;5076014;28;20480;-82
2021/06/18 11:57:13;;;;;;;2.65;0.98;;;20.20;99.30;;;;;;5074884;28;20558;-82
2021/06/18 11:59:41;;;;;;;2.60;1.50;;;20.30;99.70;;;;;;5075744;28;20053;-82
2021/06/18 12:02:21;;;;;;;4.65;1.70;;;20.30;99.90;;;;;;5075764;28;20339;-82
2021/06/18 12:05:04;;;;;;;3.15;0.95;;;20.30;99.80;;;;;;5076011;28;20131;-82
2021/06/18 12:07:32;;;;;;;1.70;0.98;;;20.40;98.90;;;;;;5075412;28;20067;-82
2021/06/18 12:10:00;;;;;;;5.78;1.25;;;20.50;99.30;;;;;;5075552;28;20123;-82
2021/06/18 12:12:27;;;;;;;2.55;0.85;;;20.30;98.40;;;;;;5075633;28;20055;-82
2021/06/18 12:14:58;;;;;;;4.03;0.90;;;20.40;99.00;;;;;;5075507;28;20339;-82
2021/06/18 12:17:25;;;;;;;1.63;0.70;;;20.30;99.50;;;;;;5075750;28;20052;-82
2021/06/18 12:19:53;;;;;;;1.23;0.77;;;20.40;98.60;;;;;;5075317;28;20052;-82
2021/06/18 12:22:21;;;;;;;2.47;1.10;;;20.40;97.00;;;;;;5075466;28;20045;-82
2021/06/18 12:24:50;;;;;;;6.00;1.10;;;20.50;98.80;;;;;;5075378;28;20045;-82
2021/06/18 12:27:18;;;;;;;3.38;1.00;;;20.40;96.30;;;;;;5075318;28;20055;-82
2021/06/18 12:29:47;;;;;;;1.75;0.55;;;20.40;97.90;;;;;;5075362;28;20054;-82
2021/06/18 12:32:15;;;;;;;4.72;0.95;;;20.40;99.70;;;;;;5075319;28;20464;-82
2021/06/18 12:34:46;;;;;;;;;;;20.40;99.20;;;;;;5075485;28;20048;-82
2021/06/18 12:37:13;;;;;;;;;;;20.40;98.80;;;;;;5075647;28;19924;-81
2021/06/18 12:39:50;;;;;;;;;;;20.40;99.20;;;;;;5075572;28;19935;-81
2021/06/18 12:42:18;;;;;;;;;;;20.30;99.70;;;;;;5075517;28;19934;-82
2021/06/18 12:44:45;;;;;;;;;;;20.30;99.90;;;;;;5075670;28;19924;-81
2021/06/18 12:47:12;;;;;;;;;;;20.20;99.90;;;;;;5075259;28;19931;-81
2021/06/18 12:49:39;;;;;;;;;;;20.10;99.90;;;;;;5074736;28;19928;-82
2021/06/18 12:52:09;;;;;;;;;;;20.10;99.90;;;;;;5075317;28;20467;-81
2021/06/18 12:54:36;;;;;;;;;;;20.00;99.90;;;;;;5075247;28;19924;-82
2021/06/18 12:57:05;;;;;;;;;;;20.10;99.90;;;;;;5074843;28;19935;-82
2021/06/18 12:59:38;;;;;;;;;;;20.20;99.50;;;;;;5075376;28;19924;-82
2021/06/18 13:02:05;;;;;;;;;;;20.30;99.10;;;;;;5075111;28;20329;-81
2021/06/18 13:04:33;;;;;;;;;;;20.30;99.00;;;;;;5075118;28;19924;-82
2021/06/18 13:07:00;;;;;;;;;;;20.30;99.20;;;;;;5075121;28;19925;-82
2021/06/18 13:09:37;;;;;;;;;;;20.30;99.40;;;;;;5074673;28;20069;-82
2021/06/18 13:12:05;;;;;;;;;;;20.30;99.10;;;;;;5075438;28;19925;-81
2021/06/18 13:14:39;;;;;;;;;;;20.20;99.80;;;;;;5075041;28;19924;-81
2021/06/18 13:17:06;;;;;;;;;;;20.20;99.90;;;;;;5075248;28;19998;-81
2021/06/18 13:19:44;;;;;;;;;;;20.10;99.90;;;;;;5075237;28;19967;-81
2021/06/18 13:22:12;;;;;;;;;;;20.20;99.90;;;;;;5074978;28;20332;-82
2021/06/18 13:24:49;;;;;;;;;;;20.10;99.80;;;;;;5075136;28;19932;-82
2021/06/18 13:27:17;;;;;;;;;;;20.10;99.90;;;;;;5074935;28;20344;-83
2021/06/18 13:29:50;;;;;;;;;;;20.20;99.40;;;;;;5074998;28;20353;-81
2021/06/18 13:32:17;;;;;;;;;;;20.30;98.30;;;;;;5074970;28;19935;-82
2021/06/18 13:34:52;;;;;;;;;;;20.40;98.70;;;;;;5074942;28;20002;-81
2021/06/18 13:37:19;;;;;;;;;;;20.30;99.70;;;;;;5075131;28;20258;-82
2021/06/18 13:39:50;;;;;;;;;;;20.30;99.30;;;;;;5074972;28;19929;-81
2021/06/18 13:42:18;;;;;;;;;;;20.30;98.60;;;;;;5075135;28;19924;-82
2021/06/18 13:44:45;;;;;;;;;;;20.20;98.50;;;;;;5074762;28;19961;-82
2021/06/18 13:47:13;;;;;;;;;;;20.00;99.80;;;;;;5074835;28;19935;-81
2021/06/18 13:49:39;;;;;;;;;;;20.00;99.70;;;;;;5074756;28;19939;-81